sensor_id;sensor_type;location;lat;lon;timestamp;temperature;humidity
74376;HTU21D;62812;55.188;61.302;2024-03-07T00:02:21;-9.88;58.90
74376;HTU21D;62812;55.188;61.302;2024-03-07T00:04:51;-9.92;58.85
74376;HTU21D;62812;55.188;61.302;2024-03-07T00:07:17;-9.86;58.92
74376;HTU21D;62812;55.188;61.302;2024-03-07T00:09:44;-9.85;58.89
74376;HTU21D;62812;55.188;61.302;2024-03-07T00:12:12;-9.74;58.48
74376;HTU21D;62812;55.188;61.302;2024-03-07T00:14:39;-9.77;58.17
74376;HTU21D;62812;55.188;61.302;2024-03-07T00:17:05;-9.81;58.32
74376;HTU21D;62812;55.188;61.302;2024-03-07T00:19:32;-9.78;58.05
74376;HTU21D;62812;55.188;61.302;2024-03-07T00:22:00;-9.78;58.04
74376;HTU21D;62812;55.188;61.302;2024-03-07T00:24:26;-9.90;58.56
74376;HTU21D;62812;55.188;61.302;2024-03-07T00:26:55;-9.92;58.73
74376;HTU21D;62812;55.188;61.302;2024-03-07T00:29:23;-10.04;59.05
74376;HTU21D;62812;55.188;61.302;2024-03-07T00:31:50;-10.10;59.14
74376;HTU21D;62812;55.188;61.302;2024-03-07T00:34:17;-10.17;59.25
74376;HTU21D;62812;55.188;61.302;2024-03-07T00:36:46;-10.29;59.90
74376;HTU21D;62812;55.188;61.302;2024-03-07T00:39:14;-10.32;59.85
74376;HTU21D;62812;55.188;61.302;2024-03-07T00:41:41;-10.34;59.93
74376;HTU21D;62812;55.188;61.302;2024-03-07T00:44:07;-10.37;60.30
74376;HTU21D;62812;55.188;61.302;2024-03-07T00:46:35;-10.36;60.07
74376;HTU21D;62812;55.188;61.302;2024-03-07T00:49:02;-10.48;60.51
74376;HTU21D;62812;55.188;61.302;2024-03-07T00:51:29;-10.49;60.58
74376;HTU21D;62812;55.188;61.302;2024-03-07T00:53:55;-10.49;60.25
74376;HTU21D;62812;55.188;61.302;2024-03-07T00:56:24;-10.51;60.56
74376;HTU21D;62812;55.188;61.302;2024-03-07T00:58:50;-10.57;60.68
74376;HTU21D;62812;55.188;61.302;2024-03-07T01:01:17;-10.62;61.09
74376;HTU21D;62812;55.188;61.302;2024-03-07T01:03:44;-10.66;61.01
74376;HTU21D;62812;55.188;61.302;2024-03-07T01:06:11;-10.67;61.15
74376;HTU21D;62812;55.188;61.302;2024-03-07T01:08:38;-10.70;61.16
74376;HTU21D;62812;55.188;61.302;2024-03-07T01:11:05;-10.63;61.03
74376;HTU21D;62812;55.188;61.302;2024-03-07T01:13:39;-10.70;61.15
74376;HTU21D;62812;55.188;61.302;2024-03-07T01:16:06;-10.70;61.28
74376;HTU21D;62812;55.188;61.302;2024-03-07T01:18:34;-10.70;61.12
74376;HTU21D;62812;55.188;61.302;2024-03-07T01:21:04;-10.59;60.64
74376;HTU21D;62812;55.188;61.302;2024-03-07T01:23:31;-10.63;60.74
74376;HTU21D;62812;55.188;61.302;2024-03-07T01:25:58;-10.71;60.97
74376;HTU21D;62812;55.188;61.302;2024-03-07T01:28:25;-10.74;61.12
74376;HTU21D;62812;55.188;61.302;2024-03-07T01:30:54;-10.79;61.36
74376;HTU21D;62812;55.188;61.302;2024-03-07T01:33:20;-10.85;61.35
74376;HTU21D;62812;55.188;61.302;2024-03-07T01:35:48;-10.94;61.93
74376;HTU21D;62812;55.188;61.302;2024-03-07T01:38:15;-10.99;62.18
74376;HTU21D;62812;55.188;61.302;2024-03-07T01:40:42;-11.03;62.10
74376;HTU21D;62812;55.188;61.302;2024-03-07T01:43:10;-11.02;62.05
74376;HTU21D;62812;55.188;61.302;2024-03-07T01:45:37;-11.00;62.17
74376;HTU21D;62812;55.188;61.302;2024-03-07T01:48:08;-11.05;62.36
74376;HTU21D;62812;55.188;61.302;2024-03-07T01:50:35;-11.03;62.13
74376;HTU21D;62812;55.188;61.302;2024-03-07T01:53:04;-11.05;62.67
74376;HTU21D;62812;55.188;61.302;2024-03-07T01:55:32;-11.12;62.69
74376;HTU21D;62812;55.188;61.302;2024-03-07T01:58:00;-11.18;62.84
74376;HTU21D;62812;55.188;61.302;2024-03-07T02:00:28;-11.22;63.11
74376;HTU21D;62812;55.188;61.302;2024-03-07T02:02:54;-11.26;62.99
74376;HTU21D;62812;55.188;61.302;2024-03-07T02:05:22;-11.27;63.09
74376;HTU21D;62812;55.188;61.302;2024-03-07T02:07:50;-11.29;62.74
74376;HTU21D;62812;55.188;61.302;2024-03-07T02:10:18;-11.31;63.06
74376;HTU21D;62812;55.188;61.302;2024-03-07T02:12:45;-11.33;63.32
74376;HTU21D;62812;55.188;61.302;2024-03-07T02:15:11;-11.41;63.48
74376;HTU21D;62812;55.188;61.302;2024-03-07T02:17:40;-11.42;63.42
74376;HTU21D;62812;55.188;61.302;2024-03-07T02:20:08;-11.46;63.52
74376;HTU21D;62812;55.188;61.302;2024-03-07T02:22:38;-11.41;63.58
74376;HTU21D;62812;55.188;61.302;2024-03-07T02:25:06;-11.40;63.45
74376;HTU21D;62812;55.188;61.302;2024-03-07T02:27:33;-11.40;63.47
74376;HTU21D;62812;55.188;61.302;2024-03-07T02:29:59;-11.41;63.60
74376;HTU21D;62812;55.188;61.302;2024-03-07T02:32:28;-11.44;63.79
74376;HTU21D;62812;55.188;61.302;2024-03-07T02:34:55;-11.49;63.94
74376;HTU21D;62812;55.188;61.302;2024-03-07T02:37:22;-11.52;64.05
74376;HTU21D;62812;55.188;61.302;2024-03-07T02:39:51;-11.55;64.26
74376;HTU21D;62812;55.188;61.302;2024-03-07T02:42:17;-11.49;64.10
74376;HTU21D;62812;55.188;61.302;2024-03-07T02:44:44;-11.48;64.02
74376;HTU21D;62812;55.188;61.302;2024-03-07T02:47:11;-11.46;64.34
74376;HTU21D;62812;55.188;61.302;2024-03-07T02:49:38;-11.40;63.85
74376;HTU21D;62812;55.188;61.302;2024-03-07T02:52:05;-11.40;63.53
74376;HTU21D;62812;55.188;61.302;2024-03-07T02:54:33;-11.29;63.31
74376;HTU21D;62812;55.188;61.302;2024-03-07T02:57:02;-11.22;63.12
74376;HTU21D;62812;55.188;61.302;2024-03-07T02:59:29;-11.12;62.95
74376;HTU21D;62812;55.188;61.302;2024-03-07T03:01:56;-11.06;62.77
74376;HTU21D;62812;55.188;61.302;2024-03-07T03:04:22;-10.94;62.35
74376;HTU21D;62812;55.188;61.302;2024-03-07T03:06:50;-10.81;61.85
74376;HTU21D;62812;55.188;61.302;2024-03-07T03:09:16;-10.70;61.94
74376;HTU21D;62812;55.188;61.302;2024-03-07T03:11:48;-10.61;61.15
74376;HTU21D;62812;55.188;61.302;2024-03-07T03:14:15;-10.47;60.43
74376;HTU21D;62812;55.188;61.302;2024-03-07T03:16:42;-10.34;59.92
74376;HTU21D;62812;55.188;61.302;2024-03-07T03:19:19;-10.21;59.31
74376;HTU21D;62812;55.188;61.302;2024-03-07T03:21:50;-10.03;59.11
74376;HTU21D;62812;55.188;61.302;2024-03-07T03:24:17;-9.90;58.70
74376;HTU21D;62812;55.188;61.302;2024-03-07T03:26:44;-9.71;58.54
74376;HTU21D;62812;55.188;61.302;2024-03-07T03:29:10;-9.49;56.93
74376;HTU21D;62812;55.188;61.302;2024-03-07T03:31:39;-9.29;56.68
74376;HTU21D;62812;55.188;61.302;2024-03-07T03:34:13;-9.15;55.81
74376;HTU21D;62812;55.188;61.302;2024-03-07T03:36:41;-8.96;55.20
74376;HTU21D;62812;55.188;61.302;2024-03-07T03:39:08;-8.79;54.81
74376;HTU21D;62812;55.188;61.302;2024-03-07T03:41:38;-8.57;54.06
74376;HTU21D;62812;55.188;61.302;2024-03-07T03:44:07;-8.39;53.43
74376;HTU21D;62812;55.188;61.302;2024-03-07T03:46:36;-8.22;52.92
74376;HTU21D;62812;55.188;61.302;2024-03-07T03:49:13;-8.05;52.34
74376;HTU21D;62812;55.188;61.302;2024-03-07T03:51:45;-7.87;52.59
74376;HTU21D;62812;55.188;61.302;2024-03-07T03:54:12;-7.69;51.35
74376;HTU21D;62812;55.188;61.302;2024-03-07T03:56:38;-7.62;51.05
74376;HTU21D;62812;55.188;61.302;2024-03-07T03:59:07;-7.46;50.37
74376;HTU21D;62812;55.188;61.302;2024-03-07T04:01:35;-7.29;50.19
74376;HTU21D;62812;55.188;61.302;2024-03-07T04:04:03;-7.19;49.63
74376;HTU21D;62812;55.188;61.302;2024-03-07T04:06:36;-7.03;49.08
74376;HTU21D;62812;55.188;61.302;2024-03-07T04:09:06;-6.94;48.65
74376;HTU21D;62812;55.188;61.302;2024-03-07T04:11:32;-6.86;49.18
74376;HTU21D;62812;55.188;61.302;2024-03-07T04:13:58;-6.71;48.09
74376;HTU21D;62812;55.188;61.302;2024-03-07T04:16:30;-6.68;48.27
74376;HTU21D;62812;55.188;61.302;2024-03-07T04:18:57;-6.43;48.35
74376;HTU21D;62812;55.188;61.302;2024-03-07T04:21:24;-6.18;48.52
74376;HTU21D;62812;55.188;61.302;2024-03-07T04:23:55;-6.08;46.46
74376;HTU21D;62812;55.188;61.302;2024-03-07T04:26:21;-6.00;46.32
74376;HTU21D;62812;55.188;61.302;2024-03-07T04:28:48;-5.98;46.19
74376;HTU21D;62812;55.188;61.302;2024-03-07T04:31:16;-6.02;46.86
74376;HTU21D;62812;55.188;61.302;2024-03-07T04:33:52;-5.85;46.29
74376;HTU21D;62812;55.188;61.302;2024-03-07T04:36:23;-5.75;45.73
74376;HTU21D;62812;55.188;61.302;2024-03-07T04:39:11;-5.55;45.19
74376;HTU21D;62812;55.188;61.302;2024-03-07T04:41:52;-5.48;44.42
74376;HTU21D;62812;55.188;61.302;2024-03-07T04:44:20;-5.48;44.93
74376;HTU21D;62812;55.188;61.302;2024-03-07T04:46:50;-5.39;44.99
74376;HTU21D;62812;55.188;61.302;2024-03-07T04:49:32;-5.39;45.87
74376;HTU21D;62812;55.188;61.302;2024-03-07T04:52:00;-5.49;44.15
74376;HTU21D;62812;55.188;61.302;2024-03-07T04:54:36;-5.50;44.47
74376;HTU21D;62812;55.188;61.302;2024-03-07T04:57:05;-5.35;45.00
74376;HTU21D;62812;55.188;61.302;2024-03-07T04:59:33;-5.43;44.85
74376;HTU21D;62812;55.188;61.302;2024-03-07T05:02:01;-5.38;45.13
74376;HTU21D;62812;55.188;61.302;2024-03-07T05:04:28;-5.44;44.64
74376;HTU21D;62812;55.188;61.302;2024-03-07T05:06:57;-5.58;44.77
74376;HTU21D;62812;55.188;61.302;2024-03-07T05:09:26;-5.69;45.75
74376;HTU21D;62812;55.188;61.302;2024-03-07T05:11:59;-5.73;45.60
74376;HTU21D;62812;55.188;61.302;2024-03-07T05:14:27;-5.77;45.88
74376;HTU21D;62812;55.188;61.302;2024-03-07T05:16:58;-5.73;46.25
74376;HTU21D;62812;55.188;61.302;2024-03-07T05:19:37;-5.69;45.56
74376;HTU21D;62812;55.188;61.302;2024-03-07T05:22:06;-5.77;45.37
74376;HTU21D;62812;55.188;61.302;2024-03-07T05:24:35;-5.89;45.87
74376;HTU21D;62812;55.188;61.302;2024-03-07T05:27:05;-5.69;47.58
74376;HTU21D;62812;55.188;61.302;2024-03-07T05:29:33;-5.55;45.90
74376;HTU21D;62812;55.188;61.302;2024-03-07T05:32:20;-5.43;44.79
74376;HTU21D;62812;55.188;61.302;2024-03-07T05:34:46;-5.43;44.97
74376;HTU21D;62812;55.188;61.302;2024-03-07T05:37:14;-5.37;44.42
74376;HTU21D;62812;55.188;61.302;2024-03-07T05:39:41;-5.20;43.87
74376;HTU21D;62812;55.188;61.302;2024-03-07T05:42:11;-5.26;45.53
74376;HTU21D;62812;55.188;61.302;2024-03-07T05:44:40;-5.01;44.25
74376;HTU21D;62812;55.188;61.302;2024-03-07T05:47:08;-5.02;43.12
74376;HTU21D;62812;55.188;61.302;2024-03-07T05:49:41;-5.15;43.74
74376;HTU21D;62812;55.188;61.302;2024-03-07T05:52:14;-5.34;44.38
74376;HTU21D;62812;55.188;61.302;2024-03-07T05:54:41;-5.35;44.57
74376;HTU21D;62812;55.188;61.302;2024-03-07T05:57:15;-5.55;44.64
74376;HTU21D;62812;55.188;61.302;2024-03-07T05:59:43;-5.41;44.99
74376;HTU21D;62812;55.188;61.302;2024-03-07T06:02:11;-5.37;46.41
74376;HTU21D;62812;55.188;61.302;2024-03-07T06:04:44;-5.44;44.15
74376;HTU21D;62812;55.188;61.302;2024-03-07T06:07:10;-5.50;45.16
74376;HTU21D;62812;55.188;61.302;2024-03-07T06:09:41;-5.60;45.13
74376;HTU21D;62812;55.188;61.302;2024-03-07T06:12:10;-5.73;45.27
74376;HTU21D;62812;55.188;61.302;2024-03-07T06:14:39;-5.76;46.33
74376;HTU21D;62812;55.188;61.302;2024-03-07T06:17:05;-5.76;45.91
74376;HTU21D;62812;55.188;61.302;2024-03-07T06:19:32;-5.78;46.33
74376;HTU21D;62812;55.188;61.302;2024-03-07T06:22:03;-5.65;46.98
74376;HTU21D;62812;55.188;61.302;2024-03-07T06:24:38;-5.55;45.70
74376;HTU21D;62812;55.188;61.302;2024-03-07T06:27:08;-5.32;46.00
74376;HTU21D;62812;55.188;61.302;2024-03-07T06:29:44;-5.29;44.22
74376;HTU21D;62812;55.188;61.302;2024-03-07T06:32:20;-5.15;44.19
74376;HTU21D;62812;55.188;61.302;2024-03-07T06:34:48;-5.05;44.35
74376;HTU21D;62812;55.188;61.302;2024-03-07T06:37:20;-5.11;43.93
74376;HTU21D;62812;55.188;61.302;2024-03-07T06:39:51;-5.10;45.00
74376;HTU21D;62812;55.188;61.302;2024-03-07T06:42:21;-5.23;45.64
74376;HTU21D;62812;55.188;61.302;2024-03-07T06:44:49;-5.33;44.91
74376;HTU21D;62812;55.188;61.302;2024-03-07T06:47:18;-5.48;45.08
74376;HTU21D;62812;55.188;61.302;2024-03-07T06:49:55;-5.47;45.79
74376;HTU21D;62812;55.188;61.302;2024-03-07T06:52:22;-5.34;46.73
74376;HTU21D;62812;55.188;61.302;2024-03-07T06:54:52;-5.31;46.43
74376;HTU21D;62812;55.188;61.302;2024-03-07T06:57:19;-5.44;45.28
74376;HTU21D;62812;55.188;61.302;2024-03-07T06:59:49;-5.64;45.50
74376;HTU21D;62812;55.188;61.302;2024-03-07T07:02:24;-5.75;48.24
74376;HTU21D;62812;55.188;61.302;2024-03-07T07:04:54;-5.68;46.27
74376;HTU21D;62812;55.188;61.302;2024-03-07T07:07:22;-5.54;47.51
74376;HTU21D;62812;55.188;61.302;2024-03-07T07:09:48;-5.55;47.80
74376;HTU21D;62812;55.188;61.302;2024-03-07T07:12:17;-5.57;47.19
74376;HTU21D;62812;55.188;61.302;2024-03-07T07:14:59;-5.43;46.52
74376;HTU21D;62812;55.188;61.302;2024-03-07T07:17:27;-5.34;45.14
74376;HTU21D;62812;55.188;61.302;2024-03-07T07:20:10;-5.44;46.80
74376;HTU21D;62812;55.188;61.302;2024-03-07T07:22:37;-5.53;46.39
74376;HTU21D;62812;55.188;61.302;2024-03-07T07:25:05;-5.57;46.73
74376;HTU21D;62812;55.188;61.302;2024-03-07T07:27:33;-5.52;46.61
74376;HTU21D;62812;55.188;61.302;2024-03-07T07:30:03;-5.68;46.54
74376;HTU21D;62812;55.188;61.302;2024-03-07T07:32:32;-5.59;47.50
74376;HTU21D;62812;55.188;61.302;2024-03-07T07:35:00;-5.48;47.45
74376;HTU21D;62812;55.188;61.302;2024-03-07T07:37:27;-5.40;46.84
74376;HTU21D;62812;55.188;61.302;2024-03-07T07:39:54;-5.32;45.89
74376;HTU21D;62812;55.188;61.302;2024-03-07T07:42:21;-5.27;45.95
74376;HTU21D;62812;55.188;61.302;2024-03-07T07:44:48;-5.20;46.73
74376;HTU21D;62812;55.188;61.302;2024-03-07T07:47:16;-5.16;46.67
74376;HTU21D;62812;55.188;61.302;2024-03-07T07:49:44;-5.11;46.44
74376;HTU21D;62812;55.188;61.302;2024-03-07T07:52:11;-5.05;46.00
74376;HTU21D;62812;55.188;61.302;2024-03-07T07:54:41;-5.04;46.76
74376;HTU21D;62812;55.188;61.302;2024-03-07T07:57:08;-5.02;45.00
74376;HTU21D;62812;55.188;61.302;2024-03-07T07:59:36;-5.00;46.88
74376;HTU21D;62812;55.188;61.302;2024-03-07T08:02:04;-5.01;46.09
74376;HTU21D;62812;55.188;61.302;2024-03-07T08:04:33;-5.01;45.05
74376;HTU21D;62812;55.188;61.302;2024-03-07T08:07:01;-5.08;44.60
74376;HTU21D;62812;55.188;61.302;2024-03-07T08:09:32;-5.02;44.02
74376;HTU21D;62812;55.188;61.302;2024-03-07T08:11:58;-5.02;44.74
74376;HTU21D;62812;55.188;61.302;2024-03-07T08:14:30;-4.97;44.49
74376;HTU21D;62812;55.188;61.302;2024-03-07T08:17:02;-4.81;45.28
74376;HTU21D;62812;55.188;61.302;2024-03-07T08:19:37;-4.74;45.74
74376;HTU21D;62812;55.188;61.302;2024-03-07T08:22:04;-4.76;45.98
74376;HTU21D;62812;55.188;61.302;2024-03-07T08:24:33;-4.75;45.16
74376;HTU21D;62812;55.188;61.302;2024-03-07T08:27:03;-4.70;43.32
74376;HTU21D;62812;55.188;61.302;2024-03-07T08:29:30;-4.65;44.01
74376;HTU21D;62812;55.188;61.302;2024-03-07T08:32:01;-4.63;43.64
74376;HTU21D;62812;55.188;61.302;2024-03-07T08:34:41;-4.65;42.73
74376;HTU21D;62812;55.188;61.302;2024-03-07T08:37:07;-4.61;43.49
74376;HTU21D;62812;55.188;61.302;2024-03-07T08:39:34;-4.61;45.35
74376;HTU21D;62812;55.188;61.302;2024-03-07T08:42:00;-4.59;45.15
74376;HTU21D;62812;55.188;61.302;2024-03-07T08:44:27;-4.53;44.66
74376;HTU21D;62812;55.188;61.302;2024-03-07T08:46:53;-4.59;43.96
74376;HTU21D;62812;55.188;61.302;2024-03-07T08:49:20;-4.56;43.90
74376;HTU21D;62812;55.188;61.302;2024-03-07T08:51:49;-4.55;44.22
74376;HTU21D;62812;55.188;61.302;2024-03-07T08:54:16;-4.57;43.90
74376;HTU21D;62812;55.188;61.302;2024-03-07T08:56:44;-4.51;43.73
74376;HTU21D;62812;55.188;61.302;2024-03-07T08:59:12;-4.45;45.08
74376;HTU21D;62812;55.188;61.302;2024-03-07T09:01:43;-4.41;43.78
74376;HTU21D;62812;55.188;61.302;2024-03-07T09:04:10;-4.37;45.11
74376;HTU21D;62812;55.188;61.302;2024-03-07T09:06:40;-4.29;43.71
74376;HTU21D;62812;55.188;61.302;2024-03-07T09:09:14;-4.30;43.43
74376;HTU21D;62812;55.188;61.302;2024-03-07T09:11:44;-4.30;42.21
74376;HTU21D;62812;55.188;61.302;2024-03-07T09:14:12;-4.31;43.13
74376;HTU21D;62812;55.188;61.302;2024-03-07T09:16:38;-4.36;44.38
74376;HTU21D;62812;55.188;61.302;2024-03-07T09:19:06;-4.29;43.90
74376;HTU21D;62812;55.188;61.302;2024-03-07T09:21:32;-4.28;44.28
74376;HTU21D;62812;55.188;61.302;2024-03-07T09:24:11;-4.27;44.51
74376;HTU21D;62812;55.188;61.302;2024-03-07T09:26:37;-4.22;44.49
74376;HTU21D;62812;55.188;61.302;2024-03-07T09:29:04;-4.23;43.24
74376;HTU21D;62812;55.188;61.302;2024-03-07T09:31:32;-4.27;44.39
74376;HTU21D;62812;55.188;61.302;2024-03-07T09:33:58;-4.22;43.15
74376;HTU21D;62812;55.188;61.302;2024-03-07T09:36:25;-4.12;43.57
74376;HTU21D;62812;55.188;61.302;2024-03-07T09:38:52;-4.15;43.32
74376;HTU21D;62812;55.188;61.302;2024-03-07T09:41:21;-4.13;44.13
74376;HTU21D;62812;55.188;61.302;2024-03-07T09:43:52;-4.10;43.06
74376;HTU21D;62812;55.188;61.302;2024-03-07T09:46:23;-4.07;43.85
74376;HTU21D;62812;55.188;61.302;2024-03-07T09:48:50;-3.79;45.68
74376;HTU21D;62812;55.188;61.302;2024-03-07T09:51:20;-3.65;43.75
74376;HTU21D;62812;55.188;61.302;2024-03-07T09:53:49;-3.65;43.56
74376;HTU21D;62812;55.188;61.302;2024-03-07T09:56:17;-3.66;43.45
74376;HTU21D;62812;55.188;61.302;2024-03-07T09:58:49;-3.60;44.90
74376;HTU21D;62812;55.188;61.302;2024-03-07T10:01:20;-3.58;42.68
74376;HTU21D;62812;55.188;61.302;2024-03-07T10:03:47;-3.60;41.04
74376;HTU21D;62812;55.188;61.302;2024-03-07T10:06:14;-3.57;43.33
74376;HTU21D;62812;55.188;61.302;2024-03-07T10:08:42;-3.63;41.57
74376;HTU21D;62812;55.188;61.302;2024-03-07T10:11:09;-3.70;42.01
74376;HTU21D;62812;55.188;61.302;2024-03-07T10:13:36;-3.65;41.69
74376;HTU21D;62812;55.188;61.302;2024-03-07T10:16:04;-3.69;43.32
74376;HTU21D;62812;55.188;61.302;2024-03-07T10:18:31;-3.66;44.09
74376;HTU21D;62812;55.188;61.302;2024-03-07T10:20:58;-3.57;42.71
74376;HTU21D;62812;55.188;61.302;2024-03-07T10:23:25;-3.56;41.59
74376;HTU21D;62812;55.188;61.302;2024-03-07T10:25:51;-3.60;42.35
74376;HTU21D;62812;55.188;61.302;2024-03-07T10:28:23;-3.75;41.12
74376;HTU21D;62812;55.188;61.302;2024-03-07T10:30:51;-3.75;41.97
74376;HTU21D;62812;55.188;61.302;2024-03-07T10:33:19;-3.82;41.39
74376;HTU21D;62812;55.188;61.302;2024-03-07T10:35:47;-3.79;43.21
74376;HTU21D;62812;55.188;61.302;2024-03-07T10:38:15;-3.75;40.59
74376;HTU21D;62812;55.188;61.302;2024-03-07T10:40:47;-3.79;40.47
74376;HTU21D;62812;55.188;61.302;2024-03-07T10:43:16;-3.75;42.48
74376;HTU21D;62812;55.188;61.302;2024-03-07T10:45:45;-3.70;42.75
74376;HTU21D;62812;55.188;61.302;2024-03-07T10:48:20;-3.67;42.84
74376;HTU21D;62812;55.188;61.302;2024-03-07T10:50:54;-3.64;41.84
74376;HTU21D;62812;55.188;61.302;2024-03-07T10:53:32;-3.55;43.14
74376;HTU21D;62812;55.188;61.302;2024-03-07T10:56:18;-3.52;42.09
74376;HTU21D;62812;55.188;61.302;2024-03-07T10:58:58;-3.46;41.35
74376;HTU21D;62812;55.188;61.302;2024-03-07T11:01:31;-3.46;42.10
74376;HTU21D;62812;55.188;61.302;2024-03-07T11:04:03;-3.50;40.52
74376;HTU21D;62812;55.188;61.302;2024-03-07T11:06:31;-3.57;40.59
74376;HTU21D;62812;55.188;61.302;2024-03-07T11:09:01;-3.57;40.16
74376;HTU21D;62812;55.188;61.302;2024-03-07T11:11:30;-3.64;39.97
74376;HTU21D;62812;55.188;61.302;2024-03-07T11:13:57;-3.56;41.38
74376;HTU21D;62812;55.188;61.302;2024-03-07T11:16:26;-3.53;42.71
74376;HTU21D;62812;55.188;61.302;2024-03-07T11:19:25;-3.27;43.86
74376;HTU21D;62812;55.188;61.302;2024-03-07T11:21:54;-3.23;42.24
74376;HTU21D;62812;55.188;61.302;2024-03-07T11:24:34;-3.21;43.22
74376;HTU21D;62812;55.188;61.302;2024-03-07T11:27:09;-3.22;42.81
74376;HTU21D;62812;55.188;61.302;2024-03-07T11:29:43;-3.31;41.62
74376;HTU21D;62812;55.188;61.302;2024-03-07T11:32:10;-3.32;42.96
74376;HTU21D;62812;55.188;61.302;2024-03-07T11:34:40;-3.40;40.60
74376;HTU21D;62812;55.188;61.302;2024-03-07T11:37:18;-3.48;41.57
74376;HTU21D;62812;55.188;61.302;2024-03-07T11:39:49;-3.46;42.61
74376;HTU21D;62812;55.188;61.302;2024-03-07T11:42:22;-3.35;43.40
74376;HTU21D;62812;55.188;61.302;2024-03-07T11:44:49;-3.36;42.45
74376;HTU21D;62812;55.188;61.302;2024-03-07T11:47:17;-3.39;42.31
74376;HTU21D;62812;55.188;61.302;2024-03-07T11:49:46;-3.30;44.71
74376;HTU21D;62812;55.188;61.302;2024-03-07T11:52:15;-3.17;42.66
74376;HTU21D;62812;55.188;61.302;2024-03-07T11:54:49;-3.13;41.95
74376;HTU21D;62812;55.188;61.302;2024-03-07T11:57:25;-3.12;42.36
74376;HTU21D;62812;55.188;61.302;2024-03-07T11:59:59;-3.12;41.89
74376;HTU21D;62812;55.188;61.302;2024-03-07T12:02:39;-3.08;41.66
74376;HTU21D;62812;55.188;61.302;2024-03-07T12:05:08;-3.12;42.33
74376;HTU21D;62812;55.188;61.302;2024-03-07T12:07:35;-3.03;44.46
74376;HTU21D;62812;55.188;61.302;2024-03-07T12:10:04;-2.95;41.43
74376;HTU21D;62812;55.188;61.302;2024-03-07T12:12:32;-2.95;41.41
74376;HTU21D;62812;55.188;61.302;2024-03-07T12:14:59;-3.03;41.57
74376;HTU21D;62812;55.188;61.302;2024-03-07T12:17:27;-3.05;41.84
74376;HTU21D;62812;55.188;61.302;2024-03-07T12:19:56;-3.16;42.39
74376;HTU21D;62812;55.188;61.302;2024-03-07T12:22:29;-3.17;41.61
74376;HTU21D;62812;55.188;61.302;2024-03-07T12:25:00;-3.13;41.33
74376;HTU21D;62812;55.188;61.302;2024-03-07T12:27:29;-3.13;41.77
74376;HTU21D;62812;55.188;61.302;2024-03-07T12:29:56;-3.21;41.91
74376;HTU21D;62812;55.188;61.302;2024-03-07T12:32:23;-3.25;43.32
74376;HTU21D;62812;55.188;61.302;2024-03-07T12:34:50;-3.21;44.39
74376;HTU21D;62812;55.188;61.302;2024-03-07T12:37:19;-3.15;42.40
74376;HTU21D;62812;55.188;61.302;2024-03-07T12:39:54;-3.18;42.85
74376;HTU21D;62812;55.188;61.302;2024-03-07T12:42:28;-3.05;45.41
74376;HTU21D;62812;55.188;61.302;2024-03-07T12:44:58;-3.17;41.24
74376;HTU21D;62812;55.188;61.302;2024-03-07T12:47:31;-3.24;43.61
74376;HTU21D;62812;55.188;61.302;2024-03-07T12:49:57;-3.20;42.52
74376;HTU21D;62812;55.188;61.302;2024-03-07T12:52:26;-3.26;43.30
74376;HTU21D;62812;55.188;61.302;2024-03-07T12:54:53;-3.37;42.84
74376;HTU21D;62812;55.188;61.302;2024-03-07T12:57:23;-3.42;44.48
74376;HTU21D;62812;55.188;61.302;2024-03-07T12:59:53;-3.42;43.64
74376;HTU21D;62812;55.188;61.302;2024-03-07T13:02:24;-3.39;44.29
74376;HTU21D;62812;55.188;61.302;2024-03-07T13:04:53;-3.36;44.14
74376;HTU21D;62812;55.188;61.302;2024-03-07T13:07:20;-3.37;43.74
74376;HTU21D;62812;55.188;61.302;2024-03-07T13:09:47;-3.46;44.70
74376;HTU21D;62812;55.188;61.302;2024-03-07T13:12:16;-3.54;43.95
74376;HTU21D;62812;55.188;61.302;2024-03-07T13:14:43;-3.63;44.32
74376;HTU21D;62812;55.188;61.302;2024-03-07T13:17:11;-3.68;44.53
74376;HTU21D;62812;55.188;61.302;2024-03-07T13:19:40;-3.68;44.51
74376;HTU21D;62812;55.188;61.302;2024-03-07T13:22:16;-3.74;43.79
74376;HTU21D;62812;55.188;61.302;2024-03-07T13:24:43;-3.78;44.22
74376;HTU21D;62812;55.188;61.302;2024-03-07T13:27:12;-3.92;44.87
74376;HTU21D;62812;55.188;61.302;2024-03-07T13:29:46;-3.94;45.26
74376;HTU21D;62812;55.188;61.302;2024-03-07T13:32:15;-3.99;44.78
74376;HTU21D;62812;55.188;61.302;2024-03-07T13:34:42;-4.02;45.28
74376;HTU21D;62812;55.188;61.302;2024-03-07T13:37:14;-4.05;45.41
74376;HTU21D;62812;55.188;61.302;2024-03-07T13:39:44;-4.10;44.91
74376;HTU21D;62812;55.188;61.302;2024-03-07T13:42:19;-4.11;46.64
74376;HTU21D;62812;55.188;61.302;2024-03-07T13:44:48;-4.02;45.60
74376;HTU21D;62812;55.188;61.302;2024-03-07T13:47:14;-4.15;44.20
74376;HTU21D;62812;55.188;61.302;2024-03-07T13:49:42;-4.23;45.07
74376;HTU21D;62812;55.188;61.302;2024-03-07T13:52:08;-4.24;46.03
74376;HTU21D;62812;55.188;61.302;2024-03-07T13:54:45;-4.26;45.38
74376;HTU21D;62812;55.188;61.302;2024-03-07T13:57:22;-4.35;45.66
74376;HTU21D;62812;55.188;61.302;2024-03-07T14:00:05;-4.42;46.45
74376;HTU21D;62812;55.188;61.302;2024-03-07T14:02:59;-4.41;47.22
74376;HTU21D;62812;55.188;61.302;2024-03-07T14:11:36;-4.65;46.01
74376;HTU21D;62812;55.188;61.302;2024-03-07T14:14:32;-4.75;46.88
74376;HTU21D;62812;55.188;61.302;2024-03-07T14:17:44;-4.82;46.96
74376;HTU21D;62812;55.188;61.302;2024-03-07T14:23:32;-4.90;47.08
74376;HTU21D;62812;55.188;61.302;2024-03-07T14:26:42;-4.84;47.79
74376;HTU21D;62812;55.188;61.302;2024-03-07T14:29:19;-4.83;46.37
74376;HTU21D;62812;55.188;61.302;2024-03-07T14:31:58;-4.88;47.05
74376;HTU21D;62812;55.188;61.302;2024-03-07T14:34:37;-4.95;46.49
74376;HTU21D;62812;55.188;61.302;2024-03-07T14:37:20;-5.02;46.84
74376;HTU21D;62812;55.188;61.302;2024-03-07T14:39:52;-5.11;47.41
74376;HTU21D;62812;55.188;61.302;2024-03-07T14:42:26;-5.09;48.00
74376;HTU21D;62812;55.188;61.302;2024-03-07T14:44:53;-5.15;47.99
74376;HTU21D;62812;55.188;61.302;2024-03-07T14:47:20;-5.13;46.93
74376;HTU21D;62812;55.188;61.302;2024-03-07T14:49:58;-5.27;47.38
74376;HTU21D;62812;55.188;61.302;2024-03-07T14:52:36;-5.39;47.64
74376;HTU21D;62812;55.188;61.302;2024-03-07T14:55:07;-5.46;47.52
74376;HTU21D;62812;55.188;61.302;2024-03-07T14:57:34;-5.59;47.63
74376;HTU21D;62812;55.188;61.302;2024-03-07T15:00:02;-5.67;47.58
74376;HTU21D;62812;55.188;61.302;2024-03-07T15:02:32;-5.76;48.66
74376;HTU21D;62812;55.188;61.302;2024-03-07T15:05:00;-5.87;48.64
74376;HTU21D;62812;55.188;61.302;2024-03-07T15:07:28;-5.97;48.82
74376;HTU21D;62812;55.188;61.302;2024-03-07T15:09:55;-6.01;48.80
74376;HTU21D;62812;55.188;61.302;2024-03-07T15:12:24;-6.07;49.82
74376;HTU21D;62812;55.188;61.302;2024-03-07T15:14:51;-6.09;49.49
74376;HTU21D;62812;55.188;61.302;2024-03-07T15:17:17;-6.07;50.59
74376;HTU21D;62812;55.188;61.302;2024-03-07T15:19:43;-6.06;49.56
74376;HTU21D;62812;55.188;61.302;2024-03-07T15:22:11;-6.14;49.76
74376;HTU21D;62812;55.188;61.302;2024-03-07T15:24:39;-6.12;50.39
74376;HTU21D;62812;55.188;61.302;2024-03-07T15:27:06;-6.14;50.21